createdAt,value
2023-09-10T00:00:49.641Z,9.68
2023-09-10T00:03:17.765Z,9.93
2023-09-10T00:05:45.745Z,9.73
2023-09-10T00:08:13.699Z,9.68
2023-09-10T00:10:43.218Z,8.98
2023-09-10T00:13:12.591Z,9.52
2023-09-10T00:15:40.696Z,10.00
2023-09-10T00:18:09.719Z,10.35
2023-09-10T00:20:37.780Z,11.00
2023-09-10T00:23:06.276Z,10.35
2023-09-10T00:25:34.377Z,9.93
2023-09-10T00:28:02.386Z,9.98
2023-09-10T00:30:31.659Z,10.77
2023-09-10T00:32:59.886Z,9.80
2023-09-10T00:35:27.811Z,10.43
2023-09-10T00:37:55.859Z,9.88
2023-09-10T00:40:23.999Z,10.20
2023-09-10T00:42:51.926Z,10.18
2023-09-10T00:45:19.920Z,10.35
2023-09-10T00:47:50.276Z,9.23
2023-09-10T00:50:19.629Z,9.30
2023-09-10T00:52:50.250Z,10.52
2023-09-10T00:55:18.833Z,11.02
2023-09-10T00:57:47.404Z,11.32
2023-09-10T01:00:16.008Z,11.27
2023-09-10T01:02:45.411Z,10.15
2023-09-10T01:05:14.808Z,10.68
2023-09-10T01:07:42.777Z,12.18
2023-09-10T01:10:11.306Z,11.25
2023-09-10T01:12:51.345Z,10.48
2023-09-10T01:15:28.685Z,11.02
2023-09-10T01:18:02.004Z,10.93
2023-09-10T01:20:52.013Z,11.15
2023-09-10T01:23:26.752Z,10.40
2023-09-10T01:25:58.064Z,12.13
2023-09-10T01:28:26.277Z,11.93
2023-09-10T01:30:54.287Z,10.80
2023-09-10T01:33:30.116Z,11.25
2023-09-10T01:36:10.121Z,11.05
2023-09-10T01:38:43.581Z,11.70
2023-09-10T01:41:15.720Z,11.88
2023-09-10T01:43:45.216Z,12.25
2023-09-10T01:46:14.290Z,11.85
2023-09-10T01:48:42.622Z,13.07
2023-09-10T01:51:10.716Z,12.90
2023-09-10T01:53:38.677Z,12.02
2023-09-10T01:56:08.469Z,12.43
2023-09-10T01:58:38.547Z,12.30
2023-09-10T02:01:08.645Z,11.63
2023-09-10T02:03:36.664Z,12.00
2023-09-10T02:06:05.372Z,11.02
2023-09-10T02:08:33.387Z,15.07
2023-09-10T02:11:05.336Z,12.05
2023-09-10T02:13:33.640Z,15.88
2023-09-10T02:16:03.386Z,12.15
2023-09-10T02:18:31.419Z,11.68
2023-09-10T02:21:01.337Z,13.25
2023-09-10T02:23:30.003Z,12.70
2023-09-10T02:25:57.995Z,12.25
2023-09-10T02:28:26.347Z,12.50
2023-09-10T02:30:54.403Z,12.27
2023-09-10T02:33:25.914Z,12.48
2023-09-10T02:35:54.142Z,12.63
2023-09-10T02:38:22.099Z,12.40
2023-09-10T02:40:49.993Z,13.77
2023-09-10T02:43:17.950Z,12.50
2023-09-10T02:45:45.961Z,12.30
2023-09-10T02:48:14.065Z,12.75
2023-09-10T02:50:43.294Z,13.23
2023-09-10T02:53:11.295Z,12.82
2023-09-10T02:55:39.331Z,12.02
2023-09-10T02:58:07.675Z,12.80
2023-09-10T03:00:35.614Z,13.48
2023-09-10T03:03:04.211Z,12.35
2023-09-10T03:05:34.537Z,12.65
2023-09-10T03:08:07.512Z,12.82
2023-09-10T03:10:37.816Z,11.95
2023-09-10T03:13:06.085Z,12.73
2023-09-10T03:15:34.105Z,13.15
2023-09-10T03:18:02.128Z,11.93
2023-09-10T03:20:33.761Z,11.77
2023-09-10T03:23:03.271Z,12.63
2023-09-10T03:25:36.708Z,10.80
2023-09-10T03:28:05.062Z,12.55
2023-09-10T03:30:32.998Z,12.70
2023-09-10T03:33:01.111Z,12.40
2023-09-10T03:35:33.115Z,12.27
2023-09-10T03:38:01.227Z,11.75
2023-09-10T03:40:29.373Z,15.63
2023-09-10T03:42:58.719Z,12.32
2023-09-10T03:45:26.687Z,11.88
2023-09-10T03:47:55.232Z,11.27
2023-09-10T03:50:23.344Z,11.05
2023-09-10T03:52:51.856Z,12.52
2023-09-10T03:55:19.909Z,13.45
2023-09-10T03:57:47.950Z,12.38
2023-09-10T04:00:17.442Z,11.80
2023-09-10T04:02:45.402Z,11.77
2023-09-10T04:05:13.838Z,12.32
2023-09-10T04:07:42.161Z,11.95
2023-09-10T04:10:10.715Z,12.93
2023-09-10T04:12:38.954Z,12.95
2023-09-10T04:15:07.621Z,13.23
2023-09-10T04:17:36.948Z,12.98
2023-09-10T04:20:08.901Z,12.95
2023-09-10T04:22:36.878Z,13.45
2023-09-10T04:25:05.196Z,12.95
2023-09-10T04:27:33.165Z,16.70
2023-09-10T04:30:01.726Z,14.25
2023-09-10T04:32:32.824Z,12.40
2023-09-10T04:35:02.149Z,13.05
2023-09-10T04:37:30.330Z,12.45
2023-09-10T04:39:58.665Z,12.48
2023-09-10T04:42:27.520Z,13.25
2023-09-10T04:44:55.391Z,13.77
2023-09-10T04:47:23.301Z,14.27
2023-09-10T04:49:51.288Z,14.48
2023-09-10T04:52:20.814Z,13.75
2023-09-10T04:54:48.792Z,15.43
2023-09-10T04:57:16.725Z,14.02
2023-09-10T04:59:44.714Z,15.23
2023-09-10T05:02:12.758Z,14.80
2023-09-10T05:04:40.809Z,13.90
2023-09-10T05:07:09.632Z,13.32
2023-09-10T05:09:38.920Z,14.75
2023-09-10T05:12:07.572Z,15.13
2023-09-10T05:14:35.569Z,14.80
2023-09-10T05:17:03.516Z,15.13
2023-09-10T05:19:31.529Z,14.35
2023-09-10T05:22:00.525Z,13.85
2023-09-10T05:24:28.909Z,15.30
2023-09-10T05:26:58.467Z,14.88
2023-09-10T05:29:27.622Z,15.70
2023-09-10T05:31:55.595Z,15.20
2023-09-10T05:34:23.562Z,14.27
2023-09-10T05:36:52.318Z,13.95
2023-09-10T05:39:20.227Z,14.05
2023-09-10T05:41:48.176Z,14.77
2023-09-10T05:44:17.716Z,14.70
2023-09-10T05:46:46.210Z,14.18
2023-09-10T05:49:14.261Z,13.85
2023-09-10T05:51:42.141Z,15.13
2023-09-10T05:54:10.381Z,13.70
2023-09-10T05:56:38.264Z,14.93
2023-09-10T05:59:08.044Z,13.70
2023-09-10T06:01:37.398Z,13.90
2023-09-10T06:04:05.794Z,14.27
2023-09-10T06:06:33.883Z,14.48
2023-09-10T06:09:01.916Z,13.68
2023-09-10T06:11:31.758Z,14.02
2023-09-10T06:13:59.923Z,14.18
2023-09-10T06:16:27.883Z,13.20
2023-09-10T06:18:59.095Z,13.07
2023-09-10T06:21:27.154Z,13.18
2023-09-10T06:23:55.262Z,13.10
2023-09-10T06:26:23.476Z,13.85
2023-09-10T06:28:51.562Z,13.88
2023-09-10T06:31:19.516Z,14.38
2023-09-10T06:33:47.525Z,15.32
2023-09-10T06:36:17.772Z,16.63
2023-09-10T06:38:48.947Z,18.33
2023-09-10T06:41:17.280Z,17.88
2023-09-10T06:43:45.625Z,17.30
2023-09-10T06:46:13.745Z,19.25
2023-09-10T06:48:41.937Z,19.02
2023-09-10T06:51:10.501Z,20.13
2023-09-10T06:53:39.772Z,25.77
2023-09-10T06:56:07.738Z,21.48
2023-09-10T06:58:35.683Z,18.92
2023-09-10T07:01:07.588Z,17.42
2023-09-10T07:03:36.000Z,19.55
2023-09-10T07:06:05.663Z,19.33
2023-09-10T07:08:34.380Z,18.88
2023-09-10T07:11:04.278Z,18.73
2023-09-10T07:13:32.273Z,17.85
2023-09-10T07:16:00.311Z,19.70
2023-09-10T07:18:34.076Z,19.63
2023-09-10T07:21:02.222Z,21.23
2023-09-10T07:23:30.689Z,18.40
2023-09-10T07:25:58.903Z,19.65
2023-09-10T07:28:30.845Z,19.42
2023-09-10T07:30:58.878Z,19.45
2023-09-10T07:33:26.908Z,21.67
2023-09-10T07:35:54.853Z,20.67
2023-09-10T07:38:22.873Z,20.05
2023-09-10T07:40:50.852Z,21.65
2023-09-10T07:43:18.905Z,20.13
2023-09-10T07:45:48.229Z,22.23
2023-09-10T07:48:16.771Z,21.35
2023-09-10T07:50:45.016Z,22.30
2023-09-10T07:53:12.984Z,21.58
2023-09-10T07:55:40.859Z,21.33
2023-09-10T07:58:08.846Z,21.80
2023-09-10T08:00:37.678Z,22.83
2023-09-10T08:03:08.249Z,23.35
2023-09-10T08:05:37.137Z,23.08
2023-09-10T08:08:05.752Z,23.08
2023-09-10T08:10:34.978Z,24.20
2023-09-10T08:13:04.733Z,24.55
2023-09-10T08:15:32.902Z,22.92
2023-09-10T08:18:02.349Z,23.17
2023-09-10T08:20:32.516Z,22.45
2023-09-10T08:23:00.516Z,22.73
2023-09-10T08:25:28.815Z,21.60
2023-09-10T08:27:56.801Z,21.63
2023-09-10T08:30:24.752Z,22.27
2023-09-10T08:32:52.739Z,22.15
2023-09-10T08:35:21.844Z,22.80
2023-09-10T08:37:51.399Z,22.80
2023-09-10T08:40:19.545Z,21.13
2023-09-10T08:42:56.819Z,23.27
2023-09-10T08:45:24.969Z,22.02
2023-09-10T08:47:56.711Z,22.95
2023-09-10T08:50:25.785Z,22.67
2023-09-10T08:52:58.605Z,21.00
2023-09-10T08:55:28.448Z,19.45
2023-09-10T08:57:57.817Z,20.27
2023-09-10T09:00:26.976Z,20.80
2023-09-10T09:02:55.269Z,21.70
2023-09-10T09:05:23.739Z,21.33
2023-09-10T09:07:56.082Z,21.38
2023-09-10T09:10:27.801Z,20.27
2023-09-10T09:12:59.332Z,21.85
2023-09-10T09:15:28.015Z,21.83
2023-09-10T09:17:58.338Z,20.77
2023-09-10T09:20:27.871Z,20.83
2023-09-10T09:23:04.824Z,19.65
2023-09-10T09:25:33.799Z,18.75
2023-09-10T09:28:02.959Z,17.17
2023-09-10T09:30:30.980Z,16.27
2023-09-10T09:32:59.270Z,12.43
2023-09-10T09:35:29.502Z,12.77
2023-09-10T09:37:59.642Z,12.02
2023-09-10T09:40:27.936Z,10.60
2023-09-10T09:43:08.986Z,9.75
2023-09-10T09:45:46.266Z,10.30
2023-09-10T09:48:14.353Z,10.85
2023-09-10T09:50:42.416Z,9.57
2023-09-10T09:53:14.534Z,10.80
2023-09-10T09:55:45.804Z,9.02
2023-09-10T09:58:13.672Z,8.90
2023-09-10T10:00:41.598Z,8.43
2023-09-10T10:03:09.959Z,8.85
2023-09-10T10:05:38.013Z,9.55
2023-09-10T10:08:06.444Z,8.10
2023-09-10T10:10:36.566Z,8.52
2023-09-10T10:13:04.936Z,9.20
2023-09-10T10:15:33.228Z,8.15
2023-09-10T10:18:02.167Z,8.88
2023-09-10T10:20:30.643Z,7.93
2023-09-10T10:23:01.888Z,8.60
2023-09-10T10:25:38.246Z,8.30
2023-09-10T10:28:10.461Z,8.35
2023-09-10T10:30:41.372Z,7.72
2023-09-10T10:33:12.161Z,8.13
2023-09-10T10:35:46.989Z,8.57
2023-09-10T10:38:18.479Z,7.40
2023-09-10T10:40:51.969Z,7.35
2023-09-10T10:43:24.967Z,8.63
2023-09-10T10:45:58.191Z,7.97
2023-09-10T10:48:28.691Z,8.55
2023-09-10T10:50:59.634Z,8.13
2023-09-10T10:53:28.711Z,8.75
2023-09-10T10:56:04.565Z,7.90
2023-09-10T10:58:35.753Z,6.97
2023-09-10T11:01:04.208Z,7.97
2023-09-10T11:03:34.438Z,6.97
2023-09-10T11:06:05.886Z,6.45
2023-09-10T11:08:35.754Z,7.20
2023-09-10T11:11:07.609Z,7.10
2023-09-10T11:13:35.658Z,6.90
2023-09-10T11:16:27.548Z,7.40
2023-09-10T11:18:55.847Z,7.57
2023-09-10T11:21:23.822Z,10.95
2023-09-10T11:24:28.518Z,7.97
2023-09-10T11:27:22.898Z,7.97
2023-09-10T11:30:10.853Z,8.05
2023-09-10T11:32:39.789Z,6.80
2023-09-10T11:35:25.842Z,6.57
2023-09-10T11:37:57.093Z,7.50
2023-09-10T11:40:26.978Z,6.25
2023-09-10T11:42:57.397Z,6.53
2023-09-10T11:45:31.274Z,6.30
2023-09-10T11:47:59.618Z,6.13
2023-09-10T11:50:31.277Z,6.20
2023-09-10T11:52:59.697Z,6.45
2023-09-10T11:55:28.076Z,5.95
2023-09-10T11:57:57.538Z,6.25
2023-09-10T12:00:25.829Z,6.05
2023-09-10T12:02:56.711Z,6.10
2023-09-10T12:05:28.890Z,6.03
2023-09-10T12:07:59.302Z,5.70
2023-09-10T12:10:28.029Z,6.53
2023-09-10T12:13:02.340Z,6.22
2023-09-10T12:15:30.665Z,6.40
2023-09-10T12:18:01.023Z,5.93
2023-09-10T12:20:29.553Z,5.88
2023-09-10T12:22:57.675Z,7.10
2023-09-10T12:25:26.021Z,6.47
2023-09-10T12:27:55.155Z,6.07
2023-09-10T12:30:26.450Z,6.05
2023-09-10T12:32:55.298Z,5.75
2023-09-10T12:35:23.910Z,5.53
2023-09-10T12:37:53.152Z,5.55
2023-09-10T12:40:22.310Z,5.35
2023-09-10T12:42:51.720Z,5.45
2023-09-10T12:45:20.122Z,6.07
2023-09-10T12:47:49.998Z,6.60
2023-09-10T12:50:18.182Z,5.90
2023-09-10T12:52:46.285Z,5.40
2023-09-10T12:55:14.386Z,5.85
2023-09-10T12:57:42.332Z,6.35
2023-09-10T13:00:11.837Z,5.70
2023-09-10T13:02:39.827Z,5.72
2023-09-10T13:05:10.281Z,5.95
2023-09-10T13:07:38.205Z,6.22
2023-09-10T13:10:07.057Z,5.72
2023-09-10T13:12:35.531Z,5.45
2023-09-10T13:15:04.290Z,5.82
2023-09-10T13:17:32.325Z,5.38
2023-09-10T13:20:00.629Z,5.75
2023-09-10T13:22:32.402Z,5.45
2023-09-10T13:25:00.444Z,5.70
2023-09-10T13:27:30.879Z,5.38
2023-09-10T13:29:58.770Z,5.55
2023-09-10T13:32:27.164Z,5.97
2023-09-10T13:34:55.374Z,5.18
2023-09-10T13:37:23.340Z,5.68
2023-09-10T13:39:52.592Z,5.40
2023-09-10T13:42:20.942Z,4.93
2023-09-10T13:44:48.895Z,5.60
2023-09-10T13:47:16.891Z,5.15
2023-09-10T13:49:44.831Z,5.18
2023-09-10T13:52:12.710Z,5.45
2023-09-10T13:54:40.736Z,6.18
2023-09-10T13:57:12.274Z,4.85
2023-09-10T13:59:40.368Z,4.28
2023-09-10T14:02:08.957Z,5.00
2023-09-10T14:04:37.036Z,5.10
2023-09-10T14:07:05.396Z,4.95
2023-09-10T14:09:33.427Z,5.35
2023-09-10T14:12:01.242Z,5.00
2023-09-10T14:14:30.853Z,4.85
2023-09-10T14:16:59.506Z,4.40
2023-09-10T14:19:27.666Z,4.90
2023-09-10T14:21:55.850Z,4.53
2023-09-10T14:24:26.160Z,4.35
2023-09-10T14:26:54.115Z,4.88
2023-09-10T14:29:22.189Z,5.13
2023-09-10T14:31:51.788Z,5.35
2023-09-10T14:34:19.668Z,6.07
2023-09-10T14:36:48.271Z,5.10
2023-09-10T14:39:17.897Z,5.00
2023-09-10T14:41:45.920Z,4.85
2023-09-10T14:44:14.955Z,4.45
2023-09-10T14:46:43.107Z,4.75
2023-09-10T14:49:12.530Z,5.13
2023-09-10T14:51:40.545Z,4.28
2023-09-10T14:54:09.449Z,5.50
2023-09-10T14:56:37.546Z,4.50
2023-09-10T14:59:05.614Z,5.72
2023-09-10T15:01:33.611Z,5.43
2023-09-10T15:04:01.677Z,4.38
2023-09-10T15:06:31.275Z,5.13
2023-09-10T15:08:59.566Z,4.95
2023-09-10T15:11:27.759Z,5.25
2023-09-10T15:13:55.668Z,5.00
2023-09-10T15:16:23.834Z,5.22
2023-09-10T15:18:51.806Z,4.57
2023-09-10T15:21:19.713Z,4.55
2023-09-10T15:23:48.975Z,4.82
2023-09-10T15:26:17.724Z,4.97
2023-09-10T15:28:45.742Z,4.63
2023-09-10T15:31:14.771Z,5.10
2023-09-10T15:33:43.280Z,4.97
2023-09-10T15:36:11.262Z,4.95
2023-09-10T15:38:39.181Z,4.47
2023-09-10T15:41:09.111Z,4.35
2023-09-10T15:43:37.125Z,5.13
2023-09-10T15:46:05.092Z,5.07
2023-09-10T15:48:35.469Z,4.43
2023-09-10T15:51:03.737Z,5.03
2023-09-10T15:53:31.661Z,5.50
2023-09-10T15:55:59.937Z,5.88
2023-09-10T15:58:29.732Z,4.90
2023-09-10T16:00:57.626Z,4.57
2023-09-10T16:03:25.678Z,4.65
2023-09-10T16:05:54.563Z,5.35
2023-09-10T16:08:28.863Z,4.78
2023-09-10T16:10:57.679Z,5.18
2023-09-10T16:13:26.694Z,5.20
2023-09-10T16:15:56.237Z,5.45
2023-09-10T16:18:24.243Z,5.47
2023-09-10T16:20:52.227Z,5.93
2023-09-10T16:23:21.066Z,5.53
2023-09-10T16:25:49.185Z,5.13
2023-09-10T16:28:17.247Z,5.47
2023-09-10T16:30:45.952Z,5.93
2023-09-10T16:33:15.328Z,5.55
2023-09-10T16:35:44.319Z,5.65
2023-09-10T16:38:13.790Z,5.80
2023-09-10T16:40:41.726Z,5.68
2023-09-10T16:43:10.420Z,5.60
2023-09-10T16:45:38.371Z,5.13
2023-09-10T16:48:06.997Z,5.60
2023-09-10T16:50:36.585Z,5.25
2023-09-10T16:53:04.718Z,7.75
2023-09-10T16:55:34.524Z,8.25
2023-09-10T16:58:03.039Z,8.43
2023-09-10T17:00:31.403Z,6.97
2023-09-10T17:02:59.903Z,5.28
2023-09-10T17:05:30.655Z,5.05
2023-09-10T17:08:05.615Z,5.60
2023-09-10T17:10:34.747Z,5.30
2023-09-10T17:13:02.691Z,5.20
2023-09-10T17:15:30.663Z,5.60
2023-09-10T17:17:58.887Z,6.57
2023-09-10T17:20:30.064Z,5.43
2023-09-10T17:22:59.992Z,5.40
2023-09-10T17:25:30.162Z,5.10
2023-09-10T17:27:58.873Z,5.60
2023-09-10T17:30:26.850Z,5.55
2023-09-10T17:32:57.977Z,5.47
2023-09-10T17:35:26.549Z,5.50
2023-09-10T17:37:54.500Z,5.20
2023-09-10T17:40:22.895Z,5.38
2023-09-10T17:42:52.305Z,6.35
2023-09-10T17:45:21.862Z,6.38
2023-09-10T17:47:49.979Z,5.57
2023-09-10T17:50:18.022Z,5.88
2023-09-10T17:52:46.014Z,6.05
2023-09-10T17:55:13.946Z,5.57
2023-09-10T17:57:41.950Z,5.45
2023-09-10T18:00:12.264Z,5.95
2023-09-10T18:02:40.806Z,5.47
2023-09-10T18:05:10.200Z,6.18
2023-09-10T18:07:38.132Z,6.53
2023-09-10T18:10:06.821Z,5.78
2023-09-10T18:12:34.767Z,5.82
2023-09-10T18:15:02.716Z,5.85
2023-09-10T18:17:34.039Z,6.10
2023-09-10T18:20:04.542Z,6.35
2023-09-10T18:22:32.731Z,6.93
2023-09-10T18:25:01.483Z,6.70
2023-09-10T18:27:30.428Z,6.20
2023-09-10T18:29:58.850Z,6.38
2023-09-10T18:32:27.549Z,5.93
2023-09-10T18:34:57.772Z,5.93
2023-09-10T18:37:25.752Z,6.60
2023-09-10T18:39:54.153Z,8.23
2023-09-10T18:42:22.106Z,8.27
2023-09-10T18:44:50.056Z,8.70
2023-09-10T18:47:18.082Z,8.77
2023-09-10T18:49:46.035Z,9.65
2023-09-10T18:52:16.207Z,10.05
2023-09-10T18:54:44.500Z,8.48
2023-09-10T18:57:15.103Z,9.02
2023-09-10T18:59:43.607Z,9.18
2023-09-10T19:02:11.640Z,8.25
2023-09-10T19:04:39.786Z,8.40
2023-09-10T19:07:09.698Z,8.32
2023-09-10T19:09:39.548Z,7.97
2023-09-10T19:12:08.637Z,7.25
2023-09-10T19:14:36.729Z,7.30
2023-09-10T19:17:04.901Z,7.30
2023-09-10T19:19:33.343Z,8.13
2023-09-10T19:22:01.298Z,8.23
2023-09-10T19:24:29.286Z,10.85
2023-09-10T19:26:58.798Z,10.82
2023-09-10T19:29:26.888Z,10.00
2023-09-10T19:31:56.933Z,13.13
2023-09-10T19:34:24.851Z,9.75
2023-09-10T19:36:52.883Z,9.60
2023-09-10T19:39:29.078Z,9.75
2023-09-10T19:41:58.727Z,9.63
2023-09-10T19:44:26.833Z,9.63
2023-09-10T19:46:54.912Z,9.88
2023-09-10T19:49:24.687Z,8.85
2023-09-10T19:51:53.783Z,8.65
2023-09-10T19:54:21.856Z,8.95
2023-09-10T19:56:49.863Z,8.52
2023-09-10T19:59:19.359Z,9.02
2023-09-10T20:01:47.335Z,8.38
2023-09-10T20:04:15.959Z,8.48
2023-09-10T20:06:47.276Z,8.82
2023-09-10T20:09:15.502Z,8.57
2023-09-10T20:11:43.770Z,8.23
2023-09-10T20:14:11.727Z,8.02
2023-09-10T20:16:41.169Z,8.70
2023-09-10T20:19:09.717Z,8.55
2023-09-10T20:21:37.881Z,8.38
2023-09-10T20:24:06.573Z,9.00
2023-09-10T20:26:34.661Z,8.65
2023-09-10T20:29:02.605Z,12.38
2023-09-10T20:31:30.607Z,10.32
2023-09-10T20:34:00.256Z,8.65
2023-09-10T20:36:28.731Z,8.50
2023-09-10T20:38:56.798Z,8.05
2023-09-10T20:41:24.984Z,8.43
2023-09-10T20:43:53.240Z,13.02
2023-09-10T20:46:21.263Z,17.45
2023-09-10T20:48:49.332Z,14.70
2023-09-10T20:51:29.797Z,10.73
2023-09-10T20:53:57.890Z,8.80
2023-09-10T20:56:26.258Z,8.38
2023-09-10T20:58:54.516Z,8.18
2023-09-10T21:01:22.564Z,7.28
2023-09-10T21:03:50.989Z,7.45
2023-09-10T21:06:19.505Z,7.47
2023-09-10T21:08:52.360Z,7.65
2023-09-10T21:11:20.737Z,8.32
2023-09-10T21:13:49.047Z,8.05
2023-09-10T21:16:18.243Z,7.68
2023-09-10T21:18:46.800Z,8.38
2023-09-10T21:21:17.142Z,7.70
2023-09-10T21:23:47.322Z,7.25
2023-09-10T21:26:16.750Z,8.35
2023-09-10T21:28:44.924Z,7.60
2023-09-10T21:31:14.460Z,7.97
2023-09-10T21:33:42.989Z,7.90
2023-09-10T21:36:11.527Z,8.38
2023-09-10T21:38:40.200Z,7.85
2023-09-10T21:41:08.858Z,8.63
2023-09-10T21:43:38.081Z,7.68
2023-09-10T21:46:10.304Z,7.90
2023-09-10T21:48:38.610Z,7.75
2023-09-10T21:51:06.938Z,8.50
2023-09-10T21:53:34.888Z,7.47
2023-09-10T21:56:02.918Z,7.07
2023-09-10T21:58:31.663Z,7.65
2023-09-10T22:01:01.034Z,7.47
2023-09-10T22:03:29.880Z,7.18
2023-09-10T22:05:59.148Z,7.63
2023-09-10T22:08:27.740Z,7.70
2023-09-10T22:10:59.893Z,7.65
2023-09-10T22:13:28.762Z,7.93
2023-09-10T22:15:57.035Z,7.65
2023-09-10T22:18:30.004Z,7.85
2023-09-10T22:20:59.696Z,8.15
2023-09-10T22:23:27.840Z,9.02
2023-09-10T22:25:55.795Z,11.13
2023-09-10T22:28:23.961Z,9.30
2023-09-10T22:30:52.141Z,9.20
2023-09-10T22:33:20.150Z,9.93
2023-09-10T22:35:49.508Z,9.57
2023-09-10T22:38:17.733Z,9.20
2023-09-10T22:40:45.765Z,9.10
2023-09-10T22:43:13.929Z,9.38
2023-09-10T22:45:41.836Z,8.70
2023-09-10T22:48:10.173Z,9.65
2023-09-10T22:50:38.545Z,9.05
2023-09-10T22:53:07.874Z,9.43
2023-09-10T22:55:35.853Z,9.70
2023-09-10T22:58:03.766Z,9.40
2023-09-10T23:00:32.328Z,9.23
2023-09-10T23:03:00.587Z,9.18
2023-09-10T23:05:28.944Z,9.25
2023-09-10T23:07:56.923Z,8.05
2023-09-10T23:10:26.770Z,8.00
2023-09-10T23:12:55.860Z,8.13
2023-09-10T23:15:22.822Z,8.07
2023-09-10T23:17:50.873Z,7.75
2023-09-10T23:20:18.926Z,7.78
2023-09-10T23:22:46.999Z,8.57
2023-09-10T23:25:14.935Z,7.95
2023-09-10T23:27:44.274Z,8.40
2023-09-10T23:30:13.111Z,7.60
2023-09-10T23:32:41.143Z,7.70
2023-09-10T23:35:10.169Z,7.35
2023-09-10T23:37:38.285Z,7.85
2023-09-10T23:40:09.489Z,7.82
2023-09-10T23:42:39.581Z,8.25
2023-09-10T23:45:11.666Z,7.43
2023-09-10T23:47:39.754Z,7.53
2023-09-10T23:50:11.286Z,8.43
2023-09-10T23:52:40.105Z,8.10
2023-09-10T23:55:11.612Z,8.52
2023-09-10T23:57:39.451Z,9.20
